Time;durP1;ratioP1;P1;durP2;ratioP2;P2;SDS_P1;SDS_P2;PMS_P1;PMS_P2;Temp;Humidity;BMP_temperature;BMP_pressure;BME280_temperature;BME280_humidity;BME280_pressure;Samples;Min_cycle;Max_cycle;Signal;HPM_P1;HPM_P2
2022/07/22 00:00:09;;;;;;;3.97;1.10;;;14.30;99.90;;;;;;5054076;28;20197;-80
2022/07/22 00:02:40;;;;;;;3.78;0.90;;;14.40;99.90;;;;;;5054582;28;20243;-83
2022/07/22 00:05:12;;;;;;;6.53;1.10;;;14.40;99.90;;;;;;5054474;28;20193;-79
2022/07/22 00:07:43;;;;;;;6.68;1.00;;;14.60;99.90;;;;;;5054067;28;20278;-84
2022/07/22 00:10:14;;;;;;;3.10;0.80;;;14.70;99.90;;;;;;5052569;28;20189;-72
2022/07/22 00:12:46;;;;;;;6.75;1.10;;;14.70;99.90;;;;;;5054052;28;20645;-82
2022/07/22 00:15:17;;;;;;;11.43;1.58;;;14.80;99.90;;;;;;5054098;28;20200;-80
2022/07/22 00:17:48;;;;;;;7.95;1.40;;;14.80;99.90;;;;;;5064466;28;20185;-82
2022/07/22 00:20:19;;;;;;;7.10;1.42;;;14.90;99.90;;;;;;5062496;28;20236;-82
2022/07/22 00:22:49;;;;;;;4.63;1.20;;;14.90;99.90;;;;;;5053663;28;20190;-82
2022/07/22 00:25:20;;;;;;;7.18;1.20;;;15.00;99.90;;;;;;5053418;28;20186;-81
2022/07/22 00:27:53;;;;;;;6.57;1.15;;;15.10;99.90;;;;;;5053586;28;20190;-83
2022/07/22 00:30:24;;;;;;;7.50;1.27;;;15.20;99.90;;;;;;5053950;28;20198;-82
2022/07/22 00:32:55;;;;;;;4.22;1.00;;;15.20;99.90;;;;;;5053616;28;20230;-81
2022/07/22 00:35:26;;;;;;;6.35;1.20;;;15.40;99.90;;;;;;5053141;28;20528;-82
2022/07/22 00:37:57;;;;;;;9.98;0.80;;;15.50;99.90;;;;;;5053640;28;20198;-82
2022/07/22 00:40:28;;;;;;;3.55;0.80;;;15.60;99.90;;;;;;5053963;28;20190;-85
2022/07/22 00:43:02;;;;;;;10.68;2.65;;;15.90;99.90;;;;;;5053335;28;20189;-83
2022/07/22 00:45:32;;;;;;;7.93;0.90;;;16.40;99.90;;;;;;5053840;28;20222;-72
2022/07/22 00:48:03;;;;;;;4.72;0.60;;;16.60;99.90;;;;;;5052856;28;20683;-82
2022/07/22 00:50:34;;;;;;;3.08;0.60;;;16.80;99.90;;;;;;5053734;28;20197;-87
2022/07/22 00:53:05;;;;;;;6.88;0.80;;;16.90;99.90;;;;;;5054290;28;20185;-90
2022/07/22 00:55:37;;;;;;;5.90;0.80;;;17.10;99.90;;;;;;5056884;28;20186;-81
2022/07/22 00:58:09;;;;;;;5.00;0.60;;;17.30;99.90;;;;;;5057248;28;20190;-86
2022/07/22 01:00:43;;;;;;;2.95;0.82;;;17.50;99.90;;;;;;5057655;28;20197;-83
2022/07/22 01:03:14;;;;;;;5.88;0.75;;;17.60;99.90;;;;;;5056231;28;20198;-78
2022/07/22 01:05:44;;;;;;;7.50;0.90;;;17.40;99.90;;;;;;5052652;28;20943;-73
2022/07/22 01:08:15;;;;;;;7.45;0.98;;;17.20;99.90;;;;;;5053074;28;20194;-72
2022/07/22 01:10:46;;;;;;;4.20;0.60;;;17.00;99.90;;;;;;5052743;28;20645;-73
2022/07/22 01:13:18;;;;;;;3.58;0.60;;;17.10;99.90;;;;;;5053262;28;20186;-72
2022/07/22 01:15:49;;;;;;;10.75;0.90;;;17.40;99.90;;;;;;5052746;28;20197;-72
2022/07/22 01:18:20;;;;;;;5.88;0.90;;;17.60;99.90;;;;;;5052829;28;20190;-73
2022/07/22 01:20:53;;;;;;;3.83;0.80;;;17.60;99.90;;;;;;5052527;28;20194;-72
2022/07/22 01:23:23;;;;;;;10.93;4.25;;;17.40;99.90;;;;;;5054775;28;20189;-71
2022/07/22 01:25:54;;;;;;;5.03;1.00;;;17.40;99.90;;;;;;5052645;28;20197;-73
2022/07/22 01:28:26;;;;;;;3.97;0.70;;;17.40;99.90;;;;;;5053119;28;20746;-71
2022/07/22 01:30:56;;;;;;;5.68;0.70;;;17.40;99.90;;;;;;5051870;28;20240;-73
2022/07/22 01:33:27;;;;;;;4.93;0.82;;;17.20;99.90;;;;;;5043611;28;20189;-72
2022/07/22 01:36:00;;;;;;;4.63;0.73;;;17.00;99.90;;;;;;5052437;28;20225;-72
2022/07/22 01:38:31;;;;;;;5.85;0.80;;;17.10;99.90;;;;;;5052531;28;20197;-73
2022/07/22 01:41:02;;;;;;;2.22;0.75;;;17.20;99.90;;;;;;5053246;28;20190;-85
2022/07/22 01:43:32;;;;;;;3.17;0.73;;;17.50;99.90;;;;;;5033141;28;20224;-79
2022/07/22 01:46:03;;;;;;;4.80;0.70;;;17.60;99.90;;;;;;5046532;28;20185;-81
2022/07/22 01:48:34;;;;;;;5.40;0.77;;;17.50;99.90;;;;;;5053331;28;20673;-80
2022/07/22 01:51:07;;;;;;;2.78;0.55;;;17.60;99.90;;;;;;5052932;28;20243;-82
2022/07/22 01:53:37;;;;;;;4.63;0.65;;;17.70;99.90;;;;;;5052179;28;20644;-80
2022/07/22 01:56:08;;;;;;;9.88;0.77;;;17.90;99.90;;;;;;5052837;28;20198;-79
2022/07/22 01:58:39;;;;;;;5.15;1.00;;;17.90;99.90;;;;;;5052423;28;20197;-78
2022/07/22 02:01:10;;;;;;;7.05;0.85;;;17.70;99.90;;;;;;5052804;28;20193;-75
2022/07/22 02:03:41;;;;;;;2.40;0.70;;;17.50;99.90;;;;;;5052762;28;20197;-81
2022/07/22 02:06:13;;;;;;;5.78;1.05;;;17.30;99.90;;;;;;5055760;28;20195;-79
2022/07/22 02:08:44;;;;;;;7.68;1.00;;;17.30;99.90;;;;;;5056249;28;20210;-82
2022/07/22 02:11:15;;;;;;;4.90;0.85;;;17.40;99.90;;;;;;5056565;28;20194;-81
2022/07/22 02:13:45;;;;;;;7.78;0.68;;;17.50;99.90;;;;;;5055925;28;20657;-76
2022/07/22 02:16:16;;;;;;;6.53;0.60;;;17.40;99.90;;;;;;5056613;28;20192;-79
2022/07/22 02:18:47;;;;;;;3.90;0.55;;;17.60;99.90;;;;;;5057004;28;20193;-80
2022/07/22 02:21:20;;;;;;;5.75;0.90;;;17.70;99.90;;;;;;5056666;28;20196;-80
2022/07/22 02:23:51;;;;;;;4.13;0.50;;;17.80;99.90;;;;;;5056231;28;20193;-80
2022/07/22 02:26:21;;;;;;;5.13;0.63;;;17.90;99.90;;;;;;5056459;28;20193;-79
2022/07/22 02:28:52;;;;;;;4.18;0.73;;;17.80;99.90;;;;;;5056661;28;20224;-82
2022/07/22 02:31:23;;;;;;;5.90;0.60;;;17.60;99.90;;;;;;5055581;28;20217;-76
2022/07/22 02:33:54;;;;;;;3.83;0.60;;;17.30;99.90;;;;;;5056379;28;20611;-76
2022/07/22 02:36:26;;;;;;;5.13;0.80;;;17.00;99.90;;;;;;5055350;28;20240;-76
2022/07/22 02:38:57;;;;;;;6.38;0.77;;;16.90;99.90;;;;;;5055204;28;20212;-78
2022/07/22 02:41:28;;;;;;;6.00;0.65;;;16.80;99.90;;;;;;5055336;28;20647;-79
2022/07/22 02:43:58;;;;;;;5.78;1.00;;;16.70;99.90;;;;;;5055339;28;20540;-77
2022/07/22 02:46:31;;;;;;;3.08;0.70;;;16.60;99.90;;;;;;5055679;28;20185;-72
2022/07/22 02:49:02;;;;;;;6.20;0.80;;;16.40;99.90;;;;;;5056320;28;20220;-79
2022/07/22 02:51:34;;;;;;;7.32;0.85;;;16.30;99.90;;;;;;5055711;28;20642;-81
2022/07/22 02:54:05;;;;;;;3.88;0.70;;;16.10;99.90;;;;;;5055948;28;20666;-78
2022/07/22 02:56:36;;;;;;;6.47;1.00;;;15.90;99.90;;;;;;5056877;28;20197;-80
2022/07/22 02:59:07;;;;;;;3.90;0.73;;;15.60;99.90;;;;;;5056384;28;20193;-81
2022/07/22 03:01:37;;;;;;;7.22;1.17;;;15.40;99.90;;;;;;5055444;28;20193;-82
2022/07/22 03:04:08;;;;;;;6.28;0.90;;;15.20;99.90;;;;;;5055714;28;20197;-80
2022/07/22 03:06:41;;;;;;;6.07;1.02;;;15.20;99.90;;;;;;5055585;28;20186;-80
2022/07/22 03:09:11;;;;;;;2.22;0.75;;;15.10;99.90;;;;;;5054604;28;20205;-73
2022/07/22 03:11:42;;;;;;;6.00;0.90;;;15.10;99.90;;;;;;5055573;28;20189;-80
2022/07/22 03:14:13;;;;;;;3.58;0.80;;;15.20;99.90;;;;;;5054812;28;20209;-81
2022/07/22 03:16:43;;;;;;;4.65;0.93;;;15.20;99.90;;;;;;5049953;28;20196;-75
2022/07/22 03:19:17;;;;;;;4.05;0.80;;;15.20;99.90;;;;;;5056736;28;20197;-79
2022/07/22 03:21:52;;;;;;;5.82;1.10;;;15.00;99.90;;;;;;5054910;28;20561;-87
2022/07/22 03:24:35;;;;;;;3.97;0.70;;;14.80;99.90;;;;;;5054920;28;20200;-81
2022/07/22 03:27:06;;;;;;;8.10;1.00;;;14.70;99.90;;;;;;5055010;28;20190;-81
2022/07/22 03:29:37;;;;;;;4.65;0.98;;;14.60;99.90;;;;;;5053908;28;20217;-76
2022/07/22 03:32:07;;;;;;;4.20;0.90;;;14.50;99.90;;;;;;5053823;28;20217;-78
2022/07/22 03:34:40;;;;;;;5.35;1.10;;;14.60;99.90;;;;;;5054848;28;20190;-73
2022/07/22 03:37:12;;;;;;;2.78;0.80;;;14.50;99.90;;;;;;5054982;28;20245;-80
2022/07/22 03:39:43;;;;;;;6.20;0.98;;;14.50;99.90;;;;;;5055762;28;20208;-72
2022/07/22 03:42:14;;;;;;;3.80;0.90;;;14.50;99.90;;;;;;5055476;28;20182;-72
2022/07/22 03:44:44;;;;;;;6.70;0.93;;;14.40;99.90;;;;;;5055033;28;20196;-73
2022/07/22 03:47:19;;;;;;;5.55;0.98;;;14.50;99.90;;;;;;5055637;28;20186;-75
2022/07/22 03:49:50;;;;;;;7.28;1.05;;;14.50;99.90;;;;;;5055619;28;20680;-82
2022/07/22 03:52:22;;;;;;;6.85;1.17;;;14.60;99.90;;;;;;5052023;28;20208;-72
2022/07/22 03:54:53;;;;;;;6.32;1.27;;;14.70;99.90;;;;;;5035567;28;20194;-71
2022/07/22 03:57:24;;;;;;;4.97;1.00;;;14.70;99.90;;;;;;5053617;28;20186;-76
2022/07/22 03:59:55;;;;;;;5.63;1.08;;;14.70;99.90;;;;;;5054785;28;20197;-72
2022/07/22 04:02:26;;;;;;;4.63;1.05;;;14.60;99.90;;;;;;5055764;28;20197;-71
2022/07/22 04:04:57;;;;;;;8.13;1.10;;;14.60;99.90;;;;;;5056862;28;20186;-78
2022/07/22 04:07:29;;;;;;;7.88;1.17;;;14.60;99.90;;;;;;5055950;28;20185;-71
2022/07/22 04:10:06;;;;;;;6.55;1.25;;;14.60;99.90;;;;;;5054796;28;20228;-72
2022/07/22 04:12:39;;;;;;;9.88;1.52;;;14.60;99.90;;;;;;5053394;28;20185;-73
2022/07/22 04:15:11;;;;;;;5.78;1.30;;;14.60;99.90;;;;;;5047048;28;20317;-72
2022/07/22 04:17:42;;;;;;;6.50;1.13;;;14.60;99.90;;;;;;5055628;28;20194;-72
2022/07/22 04:20:13;;;;;;;4.47;0.90;;;14.60;99.90;;;;;;5054951;28;20186;-75
2022/07/22 04:22:46;;;;;;;5.88;1.05;;;14.60;99.90;;;;;;5055703;28;20280;-71
2022/07/22 04:25:16;;;;;;;5.22;1.00;;;14.60;99.90;;;;;;5055693;28;20190;-72
2022/07/22 04:27:47;;;;;;;6.13;1.30;;;14.60;99.90;;;;;;5054982;28;20236;-77
2022/07/22 04:30:18;;;;;;;5.00;1.48;;;14.60;99.90;;;;;;5054318;28;20659;-72
2022/07/22 04:32:48;;;;;;;5.97;1.83;;;14.60;99.90;;;;;;5053684;28;20217;-71
2022/07/22 04:35:19;;;;;;;15.23;8.05;;;14.60;99.90;;;;;;5053481;28;20212;-78
2022/07/22 04:37:52;;;;;;;12.10;4.63;;;14.60;99.90;;;;;;5054147;28;20193;-72
2022/07/22 04:40:22;;;;;;;31.15;17.55;;;14.70;99.90;;;;;;5054309;28;20193;-71
2022/07/22 04:42:53;;;;;;;15.80;8.40;;;14.70;99.90;;;;;;5053391;28;20644;-71
2022/07/22 04:45:24;;;;;;;4.72;1.60;;;14.70;99.90;;;;;;5053058;28;20189;-70
2022/07/22 04:47:57;;;;;;;9.20;1.55;;;14.70;99.90;;;;;;5054299;28;20200;-71
2022/07/22 04:50:27;;;;;;;5.28;1.23;;;14.60;99.90;;;;;;5053589;28;20223;-71
2022/07/22 04:53:00;;;;;;;6.78;1.40;;;14.60;99.90;;;;;;5053932;28;20208;-72
2022/07/22 04:55:31;;;;;;;11.80;1.25;;;14.50;99.90;;;;;;5054802;28;20194;-71
2022/07/22 04:58:01;;;;;;;8.60;1.20;;;14.40;99.90;;;;;;5054795;28;20182;-71
2022/07/22 05:00:32;;;;;;;7.10;0.80;;;14.40;99.90;;;;;;5055661;28;20216;-74
2022/07/22 05:03:03;;;;;;;9.15;1.00;;;14.30;99.90;;;;;;5056031;28;20193;-71
2022/07/22 05:05:33;;;;;;;5.57;1.00;;;14.30;99.90;;;;;;5053916;28;20193;-72
2022/07/22 05:08:06;;;;;;;3.33;1.10;;;14.20;99.90;;;;;;5054347;28;20197;-74
2022/07/22 05:10:37;;;;;;;7.90;1.20;;;14.30;99.90;;;;;;5054492;28;20221;-71
2022/07/22 05:13:08;;;;;;;7.03;1.20;;;14.20;99.90;;;;;;5054371;28;20194;-71
2022/07/22 05:15:38;;;;;;;10.90;2.80;;;14.30;99.90;;;;;;5054337;28;20194;-72
2022/07/22 05:18:09;;;;;;;11.27;1.42;;;14.30;99.90;;;;;;5054364;28;20208;-72
2022/07/22 05:20:40;;;;;;;8.82;1.40;;;14.30;99.90;;;;;;5054317;28;20197;-73
2022/07/22 05:23:13;;;;;;;7.95;1.30;;;14.30;99.90;;;;;;5055073;28;20192;-71
2022/07/22 05:25:43;;;;;;;6.32;1.10;;;14.30;99.90;;;;;;5053083;28;20190;-73
2022/07/22 05:28:14;;;;;;;9.00;1.40;;;14.40;99.90;;;;;;5054708;28;20188;-73
2022/07/22 05:30:45;;;;;;;7.53;1.15;;;14.40;99.90;;;;;;5052790;28;20672;-74
2022/07/22 05:33:16;;;;;;;7.30;1.20;;;14.40;99.90;;;;;;5054718;28;20251;-75
2022/07/22 05:35:47;;;;;;;7.30;1.30;;;14.50;99.90;;;;;;5054013;28;20221;-84
2022/07/22 05:38:19;;;;;;;9.20;1.30;;;14.50;99.90;;;;;;5054361;28;20189;-86
2022/07/22 05:40:50;;;;;;;7.30;1.38;;;14.50;99.90;;;;;;5053387;28;20200;-84
2022/07/22 05:43:21;;;;;;;7.57;1.30;;;14.50;99.90;;;;;;5054216;28;20197;-83
2022/07/22 05:45:52;;;;;;;9.73;1.35;;;14.40;99.90;;;;;;5053277;28;20185;-84
2022/07/22 05:48:22;;;;;;;8.38;1.30;;;14.50;99.90;;;;;;5053587;28;20705;-83
2022/07/22 05:50:53;;;;;;;8.02;1.30;;;14.50;99.90;;;;;;5050068;28;20213;-83
2022/07/22 05:53:26;;;;;;;10.27;1.40;;;14.50;99.90;;;;;;5052740;28;20186;-83
2022/07/22 05:55:56;;;;;;;6.65;1.52;;;14.40;99.90;;;;;;5054618;28;20554;-83
2022/07/22 05:58:27;;;;;;;9.77;1.27;;;14.40;99.90;;;;;;5053461;28;20194;-85
2022/07/22 06:00:58;;;;;;;7.40;1.17;;;14.50;99.90;;;;;;5053033;28;20200;-88
2022/07/22 06:03:29;;;;;;;10.60;1.10;;;14.50;99.90;;;;;;5051713;28;20197;-85
2022/07/22 06:06:01;;;;;;;8.60;1.52;;;14.40;99.90;;;;;;5053295;28;20190;-86
2022/07/22 06:08:33;;;;;;;10.13;1.15;;;14.40;99.90;;;;;;5052749;28;20189;-89
2022/07/22 06:11:04;;;;;;;11.63;1.15;;;14.40;99.90;;;;;;5053357;28;20220;-85
2022/07/22 06:13:35;;;;;;;8.70;1.10;;;14.40;99.90;;;;;;5052306;28;20208;-85
2022/07/22 06:16:07;;;;;;;11.27;2.05;;;14.30;99.90;;;;;;5053276;28;20561;-85
2022/07/22 06:18:37;;;;;;;11.60;1.55;;;14.30;99.90;;;;;;5052626;28;20224;-84
2022/07/22 06:21:09;;;;;;;8.15;1.33;;;14.30;99.90;;;;;;5053518;28;20200;-83
2022/07/22 06:23:42;;;;;;;9.98;1.30;;;14.30;99.90;;;;;;5051697;28;20189;-82
2022/07/22 06:26:12;;;;;;;8.10;1.08;;;14.30;99.90;;;;;;5051996;28;20189;-82
2022/07/22 06:28:43;;;;;;;12.80;1.48;;;14.20;99.90;;;;;;5052040;28;20194;-83
2022/07/22 06:31:14;;;;;;;8.13;1.10;;;14.20;99.90;;;;;;5051420;28;20225;-83
2022/07/22 06:33:45;;;;;;;6.93;1.10;;;14.20;99.90;;;;;;5052318;28;20190;-83
2022/07/22 06:36:17;;;;;;;11.10;1.20;;;14.30;99.90;;;;;;5051961;28;20237;-85
2022/07/22 06:38:49;;;;;;;7.38;1.35;;;14.30;99.90;;;;;;5052194;28;20630;-85
2022/07/22 06:41:20;;;;;;;8.48;1.13;;;14.30;99.90;;;;;;5052272;28;20647;-83
2022/07/22 06:43:51;;;;;;;4.00;1.02;;;14.30;99.90;;;;;;5051974;28;20197;-80
2022/07/22 06:46:21;;;;;;;6.45;1.00;;;14.30;99.90;;;;;;5051552;28;20193;-84
2022/07/22 06:48:52;;;;;;;8.77;1.52;;;14.30;99.90;;;;;;5052048;28;20202;-85
2022/07/22 06:51:23;;;;;;;5.10;0.90;;;14.40;99.90;;;;;;5053528;28;20252;-84
2022/07/22 06:53:56;;;;;;;4.85;0.80;;;14.40;99.90;;;;;;5055835;28;20668;-82
2022/07/22 06:56:27;;;;;;;5.32;0.80;;;14.40;99.90;;;;;;5055729;28;20554;-83
2022/07/22 06:58:57;;;;;;;5.78;1.00;;;14.40;99.90;;;;;;5055509;28;20209;-82
2022/07/22 07:01:28;;;;;;;7.40;1.10;;;14.40;99.90;;;;;;5054963;28;20189;-81
2022/07/22 07:03:58;;;;;;;6.30;0.90;;;14.30;99.90;;;;;;5055640;28;20601;-79
2022/07/22 07:06:29;;;;;;;5.35;0.70;;;14.20;99.90;;;;;;5055406;28;20197;-82
2022/07/22 07:09:02;;;;;;;6.13;0.85;;;14.20;99.90;;;;;;5055750;28;20189;-81
2022/07/22 07:11:33;;;;;;;7.50;0.80;;;14.20;99.90;;;;;;5055201;28;20213;-80
2022/07/22 07:14:04;;;;;;;5.35;0.90;;;14.10;99.90;;;;;;5055246;28;20196;-79
2022/07/22 07:16:34;;;;;;;6.25;1.02;;;14.10;99.90;;;;;;5055392;28;20193;-76
2022/07/22 07:19:05;;;;;;;7.63;1.50;;;14.10;99.90;;;;;;5054964;28;20563;-78
2022/07/22 07:21:35;;;;;;;6.22;2.90;;;14.10;99.90;;;;;;5054170;28;20239;-81
2022/07/22 07:24:08;;;;;;;8.50;3.22;;;14.20;99.90;;;;;;5054929;28;20663;-82
2022/07/22 07:26:39;;;;;;;14.75;5.68;;;14.20;99.90;;;;;;5055012;28;20201;-85
2022/07/22 07:29:10;;;;;;;9.90;3.30;;;14.20;99.90;;;;;;5054879;28;20645;-81
2022/07/22 07:31:41;;;;;;;8.38;2.05;;;14.20;99.90;;;;;;5054458;28;20233;-82
2022/07/22 07:34:11;;;;;;;4.30;1.30;;;14.20;99.90;;;;;;5055294;28;20197;-88
2022/07/22 07:36:42;;;;;;;5.55;0.93;;;14.20;99.90;;;;;;5055201;28;20233;-89
2022/07/22 07:39:15;;;;;;;6.63;1.05;;;14.30;99.90;;;;;;5054989;28;20194;-90
2022/07/22 07:41:45;;;;;;;3.70;0.80;;;14.30;99.90;;;;;;5054931;28;20204;-88
2022/07/22 07:44:16;;;;;;;4.05;0.88;;;14.30;99.90;;;;;;5055364;28;20194;-87
2022/07/22 07:46:47;;;;;;;9.48;1.20;;;14.20;99.90;;;;;;5055422;28;20190;-90
2022/07/22 07:49:17;;;;;;;8.43;1.33;;;14.20;99.90;;;;;;5055284;28;20190;-91
2022/07/22 07:51:48;;;;;;;4.57;1.15;;;14.20;99.90;;;;;;5055063;28;20248;-90
2022/07/22 07:54:21;;;;;;;4.13;0.88;;;14.20;99.90;;;;;;5055072;28;20201;-84
2022/07/22 07:56:51;;;;;;;6.97;1.10;;;14.10;99.90;;;;;;5054760;28;20197;-89
2022/07/22 07:59:25;;;;;;;7.90;1.27;;;14.10;99.90;;;;;;5054896;28;20633;-89
2022/07/22 08:01:56;;;;;;;10.20;1.20;;;14.10;99.90;;;;;;5054712;28;20186;-82
2022/07/22 08:04:26;;;;;;;9.05;1.50;;;14.10;99.90;;;;;;5054221;28;20189;-89
2022/07/22 08:06:57;;;;;;;5.88;1.00;;;14.10;99.90;;;;;;5055172;28;20194;-85
2022/07/22 08:09:30;;;;;;;6.57;1.27;;;14.10;99.90;;;;;;5054911;28;20216;-78
2022/07/22 08:12:00;;;;;;;7.50;1.35;;;14.10;99.90;;;;;;5054376;28;20632;-85
2022/07/22 08:14:31;;;;;;;5.70;1.00;;;14.20;99.90;;;;;;5054573;28;20641;-91
2022/07/22 08:17:03;;;;;;;4.72;0.90;;;14.20;99.90;;;;;;5054659;28;20194;-83
2022/07/22 08:19:34;;;;;;;6.38;1.00;;;14.10;99.90;;;;;;5048960;28;20190;-80
2022/07/22 08:22:05;;;;;;;3.72;1.13;;;14.00;99.90;;;;;;5045452;28;20194;-84
2022/07/22 08:24:37;;;;;;;8.15;1.50;;;14.00;99.90;;;;;;5053155;28;20197;-85
2022/07/22 08:27:08;;;;;;;5.50;1.10;;;13.90;99.90;;;;;;5054160;28;20651;-86
2022/07/22 08:29:39;;;;;;;3.90;1.10;;;13.90;99.90;;;;;;5053853;28;20198;-86
2022/07/22 08:32:10;;;;;;;6.63;1.40;;;13.90;99.90;;;;;;5050901;28;20225;-86
2022/07/22 08:34:40;;;;;;;3.95;1.05;;;13.80;99.90;;;;;;5041241;28;20672;-86
2022/07/22 08:37:11;;;;;;;6.47;1.50;;;13.80;99.90;;;;;;5053502;28;20225;-73
2022/07/22 08:39:44;;;;;;;3.63;1.20;;;13.80;99.90;;;;;;5053276;28;20255;-77
2022/07/22 08:42:15;;;;;;;5.18;1.35;;;13.80;99.90;;;;;;5053675;28;20200;-74
2022/07/22 08:44:46;;;;;;;7.78;1.60;;;13.80;99.90;;;;;;5054054;28;20186;-72
2022/07/22 08:47:17;;;;;;;5.63;1.27;;;13.80;99.90;;;;;;5053707;28;20521;-74
2022/07/22 08:49:47;;;;;;;8.10;1.50;;;13.80;99.90;;;;;;5053504;28;20194;-73
2022/07/22 08:52:18;;;;;;;7.68;1.55;;;13.80;99.90;;;;;;5053132;28;20213;-73
2022/07/22 08:54:51;;;;;;;7.80;1.60;;;13.70;99.90;;;;;;5053284;28;20200;-73
2022/07/22 08:57:22;;;;;;;6.35;1.70;;;13.70;99.90;;;;;;5053024;28;20655;-73
2022/07/22 08:59:57;;;;;;;7.15;2.10;;;13.70;99.90;;;;;;5053500;28;20190;-72
2022/07/22 09:02:28;;;;;;;12.10;3.92;;;13.60;99.90;;;;;;5053546;28;20193;-75
2022/07/22 09:05:01;;;;;;;11.35;4.03;;;13.60;99.90;;;;;;5052202;28;20190;-73
2022/07/22 09:07:34;;;;;;;7.97;2.70;;;13.60;99.90;;;;;;5053185;28;20190;-73
2022/07/22 09:10:09;;;;;;;8.90;2.63;;;13.60;99.90;;;;;;5052762;28;20240;-76
2022/07/22 09:12:55;;;;;;;10.57;2.85;;;13.60;99.90;;;;;;5053329;28;20255;-74
2022/07/22 09:15:32;;;;;;;4.35;1.95;;;13.60;99.90;;;;;;5047350;28;20284;-72
2022/07/22 09:18:03;;;;;;;4.28;1.55;;;13.60;99.90;;;;;;5053217;28;20189;-73
2022/07/22 09:20:35;;;;;;;6.55;1.77;;;13.50;99.90;;;;;;5052877;28;20196;-72
2022/07/22 09:23:11;;;;;;;6.53;1.80;;;13.50;99.90;;;;;;5053039;28;20185;-76
2022/07/22 09:25:44;;;;;;;6.35;1.63;;;13.50;99.90;;;;;;5052636;28;20197;-83
2022/07/22 09:28:19;;;;;;;7.47;1.60;;;13.50;99.90;;;;;;5053007;28;20190;-84
2022/07/22 09:30:54;;;;;;;5.85;2.00;;;13.50;99.90;;;;;;5051999;28;20219;-84
2022/07/22 09:33:25;;;;;;;5.25;1.63;;;13.50;99.90;;;;;;5043001;28;20200;-85
2022/07/22 09:36:03;;;;;;;6.45;2.10;;;13.50;99.90;;;;;;5052662;28;20225;-79
2022/07/22 09:38:34;;;;;;;7.35;2.00;;;13.50;99.90;;;;;;5052646;28;20212;-78
2022/07/22 09:41:08;;;;;;;5.30;2.15;;;13.50;99.90;;;;;;5052743;28;20190;-85
2022/07/22 09:43:39;;;;;;;8.20;2.25;;;13.40;99.90;;;;;;5052318;28;20189;-85
2022/07/22 09:46:11;;;;;;;6.15;2.30;;;13.40;99.90;;;;;;5052791;28;20205;-81
2022/07/22 09:48:43;;;;;;;9.27;2.85;;;13.50;99.90;;;;;;5052767;28;20194;-77
2022/07/22 09:51:14;;;;;;;7.20;2.40;;;13.40;99.90;;;;;;5052242;28;20646;-85
2022/07/22 09:53:45;;;;;;;7.60;2.45;;;13.40;99.90;;;;;;5051991;28;20186;-84
2022/07/22 09:56:19;;;;;;;4.65;2.70;;;13.40;99.90;;;;;;5052299;28;20590;-88
2022/07/22 09:58:50;;;;;;;11.43;2.63;;;13.40;99.90;;;;;;5052679;28;20196;-78
2022/07/22 10:01:21;;;;;;;6.75;2.35;;;13.30;99.90;;;;;;5052308;28;20197;-83
2022/07/22 10:03:56;;;;;;;5.72;2.22;;;13.30;99.90;;;;;;5052544;28;20190;-87
2022/07/22 10:06:27;;;;;;;10.15;2.80;;;13.20;99.90;;;;;;5052266;28;20188;-84
2022/07/22 10:08:59;;;;;;;6.13;2.63;;;13.30;99.90;;;;;;5052416;28;20193;-83
2022/07/22 10:11:32;;;;;;;14.43;4.32;;;13.30;99.90;;;;;;5052321;28;20719;-84
2022/07/22 10:14:03;;;;;;;7.53;3.15;;;13.30;99.90;;;;;;5052460;28;20197;-86
2022/07/22 10:16:34;;;;;;;10.43;3.25;;;13.30;99.90;;;;;;5051933;28;20275;-85
2022/07/22 10:19:05;;;;;;;9.77;3.50;;;13.30;99.90;;;;;;5052664;28;20200;-83
2022/07/22 10:21:37;;;;;;;5.93;3.00;;;13.30;99.90;;;;;;5052330;28;20201;-84
2022/07/22 10:24:17;;;;;;;8.00;2.22;;;13.30;99.90;;;;;;5052803;28;20190;-84
2022/07/22 10:26:55;;;;;;;14.63;6.97;;;13.40;99.90;;;;;;5054529;28;20193;-81
2022/07/22 10:29:30;;;;;;;11.93;6.45;;;13.40;99.90;;;;;;5054573;28;20656;-86
2022/07/22 10:32:30;;;;;;;10.77;4.40;;;13.40;99.90;;;;;;5053641;28;20228;-85
2022/07/22 10:35:25;;;;;;;14.52;7.75;;;13.40;99.90;;;;;;5006451;28;20195;-82
2022/07/22 10:37:59;;;;;;;7.43;2.35;;;13.40;99.90;;;;;;5055255;28;20205;-86
2022/07/22 10:40:31;;;;;;;7.38;2.10;;;13.40;99.90;;;;;;5055825;28;20641;-85
2022/07/22 10:43:12;;;;;;;7.10;2.33;;;13.40;99.90;;;;;;5056050;28;20649;-84
2022/07/22 10:45:46;;;;;;;7.70;2.00;;;13.50;99.90;;;;;;5055878;28;20186;-85
2022/07/22 10:48:19;;;;;;;8.15;2.00;;;13.50;99.90;;;;;;5056050;28;20193;-80
2022/07/22 10:50:52;;;;;;;5.00;1.98;;;13.50;99.90;;;;;;5055577;28;20190;-80
2022/07/22 10:53:24;;;;;;;6.68;2.00;;;13.50;99.90;;;;;;5055807;28;20217;-73
2022/07/22 10:56:14;;;;;;;6.32;2.35;;;13.50;99.90;;;;;;5055868;28;20548;-72
2022/07/22 10:58:56;;;;;;;7.38;2.05;;;13.40;99.90;;;;;;5055537;28;20194;-71
2022/07/22 11:01:30;;;;;;;4.28;1.88;;;13.50;99.90;;;;;;5055780;28;20197;-72
2022/07/22 11:04:14;;;;;;;5.82;2.00;;;13.50;99.90;;;;;;5055464;28;20186;-73
2022/07/22 11:06:46;;;;;;;6.72;2.22;;;13.50;99.90;;;;;;5053933;28;20193;-73
2022/07/22 11:09:17;;;;;;;5.55;2.35;;;13.50;99.90;;;;;;5055510;28;20194;-73
2022/07/22 11:11:50;;;;;;;6.38;2.60;;;13.50;99.90;;;;;;5055317;28;20214;-72
2022/07/22 11:14:30;;;;;;;5.90;2.10;;;13.50;99.90;;;;;;5055516;28;20594;-76
2022/07/22 11:17:03;;;;;;;6.63;2.38;;;13.50;99.90;;;;;;5055312;28;20255;-73
2022/07/22 11:19:37;;;;;;;7.05;1.92;;;13.50;99.90;;;;;;5055295;28;20193;-73
2022/07/22 11:22:09;;;;;;;6.40;2.10;;;13.40;99.90;;;;;;5055349;28;20193;-75
2022/07/22 11:24:41;;;;;;;5.90;1.70;;;13.40;99.90;;;;;;5055138;28;20637;-77
2022/07/22 11:27:16;;;;;;;5.10;1.88;;;13.40;99.90;;;;;;5055304;28;20190;-73
2022/07/22 11:29:52;;;;;;;4.78;1.40;;;13.40;99.90;;;;;;5055187;28;20189;-74
2022/07/22 11:32:24;;;;;;;3.45;1.15;;;13.40;99.90;;;;;;5054104;28;20234;-75
2022/07/22 11:34:55;;;;;;;5.10;1.00;;;13.40;99.90;;;;;;5056082;28;20213;-77
2022/07/22 11:37:26;;;;;;;3.13;0.82;;;13.40;99.90;;;;;;5036928;28;20225;-73
2022/07/22 11:40:03;;;;;;;3.83;1.00;;;13.40;99.90;;;;;;5055188;28;20185;-75
2022/07/22 11:42:34;;;;;;;6.38;1.00;;;13.30;99.90;;;;;;5054674;28;20195;-76
2022/07/22 11:45:07;;;;;;;5.32;1.20;;;13.30;99.90;;;;;;5054584;28;20200;-73
2022/07/22 11:47:37;;;;;;;4.97;1.10;;;13.30;99.90;;;;;;5053880;28;20207;-73
2022/07/22 11:50:09;;;;;;;6.45;1.33;;;13.30;99.90;;;;;;5054275;28;20186;-71
2022/07/22 11:52:40;;;;;;;2.60;1.17;;;13.30;99.90;;;;;;5054675;28;20593;-77
2022/07/22 11:55:18;;;;;;;6.38;1.70;;;13.30;99.90;;;;;;5054849;28;20186;-73
2022/07/22 11:57:51;;;;;;;7.72;1.40;;;13.30;99.90;;;;;;5054129;28;20663;-73
2022/07/22 12:00:24;;;;;;;8.98;2.40;;;13.30;99.90;;;;;;5054772;28;20198;-72
2022/07/22 12:02:55;;;;;;;4.22;1.83;;;13.30;99.90;;;;;;5054961;28;20297;-77
2022/07/22 12:05:25;;;;;;;6.05;2.05;;;13.30;99.90;;;;;;5053959;28;20197;-73
2022/07/22 12:07:57;;;;;;;8.35;2.35;;;13.30;99.90;;;;;;5054439;28;20189;-72
2022/07/22 12:10:27;;;;;;;4.35;2.10;;;13.30;99.90;;;;;;5054487;28;20637;-74
2022/07/22 12:12:58;;;;;;;6.70;2.30;;;13.30;99.90;;;;;;5054269;28;20213;-76
2022/07/22 12:15:31;;;;;;;8.68;2.30;;;13.30;99.90;;;;;;5054010;28;20197;-72
2022/07/22 12:18:19;;;;;;;6.45;2.03;;;13.30;99.90;;;;;;5053903;28;20193;-72
2022/07/22 12:20:50;;;;;;;5.00;2.50;;;13.30;99.90;;;;;;5053720;28;20641;-73
2022/07/22 12:23:21;;;;;;;7.10;2.10;;;13.30;99.90;;;;;;5053811;28;20645;-72
2022/07/22 12:25:56;;;;;;;5.80;2.50;;;13.20;99.90;;;;;;5050350;28;20193;-74
2022/07/22 12:28:28;;;;;;;6.30;2.95;;;13.30;99.90;;;;;;5053776;28;20197;-77
2022/07/22 12:31:00;;;;;;;4.70;3.30;;;13.20;99.90;;;;;;5052515;28;20214;-73
2022/07/22 12:33:31;;;;;;;8.20;3.45;;;13.20;99.90;;;;;;5053342;28;20205;-76
2022/07/22 12:36:07;;;;;;;11.98;3.50;;;13.20;99.90;;;;;;5053711;28;20244;-79
2022/07/22 12:38:38;;;;;;;10.15;3.58;;;13.20;99.90;;;;;;5053659;28;20181;-72
2022/07/22 12:41:29;;;;;;;8.73;3.40;;;13.20;99.90;;;;;;5053635;28;20197;-74
2022/07/22 12:44:00;;;;;;;8.82;3.70;;;13.20;99.90;;;;;;5048316;28;20194;-76
2022/07/22 12:46:32;;;;;;;10.68;4.13;;;13.20;99.90;;;;;;5053374;28;20535;-79
2022/07/22 12:49:04;;;;;;;8.55;3.88;;;13.10;99.90;;;;;;5052138;28;20198;-74
2022/07/22 12:51:35;;;;;;;5.60;3.50;;;13.20;99.90;;;;;;5053313;28;20186;-72
2022/07/22 12:54:06;;;;;;;13.20;4.57;;;13.20;99.90;;;;;;5053363;28;20197;-74
2022/07/22 12:56:39;;;;;;;6.53;3.80;;;13.20;99.90;;;;;;5053169;28;20649;-74
2022/07/22 12:59:09;;;;;;;6.93;3.40;;;13.20;99.90;;;;;;5053312;28;20313;-72
2022/07/22 13:01:42;;;;;;;7.18;3.80;;;13.30;99.90;;;;;;5052759;28;20658;-72
2022/07/22 13:04:13;;;;;;;6.25;3.40;;;13.20;99.90;;;;;;5053172;28;20202;-74
2022/07/22 13:06:43;;;;;;;9.90;3.78;;;13.20;99.90;;;;;;5052332;28;20202;-71
2022/07/22 13:09:14;;;;;;;10.60;3.90;;;13.20;99.90;;;;;;5052793;28;20193;-71